Latest Weather Observations for Bradshaw

IDD60801

Issued at 8:21 am CST Wednesday 24 October 2018 (issued every 10 minutes, with the page automatically refreshed every 10 minutes)

About weather observations | Map of weather stations | Latest weather observations for NT | Other Formats
Station Details ID: 014954 Name: BRADSHAW Lat: -14.94 Lon: 130.81 Height: 75.0 m
Data from the previous 72 hours. | See also: Recent months at Bradshaw
Date/Time
CST
Temp
°C
App
Temp
°C
Dew
Point
°C
Rel
Hum
%
Delta-T
°C
Wind Press
QNH
hPa
Press
MSL
hPa
Rain since
9am
mm
Dir  Spd
km/h
Gust
km/h
Spd
kts
Gust
kts
24/08:00am 28.9 33.3 24.5 77 3.1 N 9 11 5 6 1012.2 - 33.4
24/07:30am 28.3 33.0 24.3 79 2.8 WNW 7 11 4 6 1011.8 - 33.4
24/07:00am 27.8 32.8 24.8 84 2.1 N 7 9 4 5 1011.4 - 33.4
24/06:30am 27.3 32.4 24.6 85 1.9 NNW 6 7 3 4 1011.1 - 33.4
24/06:00am 27.5 32.5 24.5 84 2.1 N 6 7 3 4 1010.8 1010.2 33.4
24/05:30am 27.6 33.4 24.6 84 2.1 N 2 7 1 4 1010.5 - 33.4
24/05:00am 27.8 32.4 24.2 81 2.5 WNW 7 9 4 5 1010.1 - 33.4
24/04:30am 27.9 32.5 24.1 80 2.6 N 7 9 4 5 1010.2 - 33.4
24/04:00am 27.8 32.5 23.4 77 3.0 N 4 7 2 4 1009.8 - 33.4
24/03:30am 28.3 31.8 22.8 72 3.8 NW 9 13 5 7 1009.5 - 33.4
24/03:00am 28.4 30.8 22.2 69 4.2 NW 13 17 7 9 1009.7 1009.1 33.4
24/02:30am 28.3 31.9 22.3 70 4.1 WNW 7 15 4 8 1009.7 - 33.4
24/02:00am 28.1 31.1 22.6 72 3.7 NNW 11 20 6 11 1009.4 - 33.4
24/01:30am 28.2 30.6 22.2 70 4.1 N 13 20 7 11 1010.1 - 33.4
24/01:00am 28.3 29.6 21.6 67 4.5 N 17 22 9 12 1010.5 - 33.4
24/12:30am 27.8 31.6 22.7 74 3.5 N 7 11 4 6 1011.0 - 33.4
24/12:00am 28.4 31.3 22.4 70 4.1 N 11 17 6 9 1011.2 1010.6 33.4
 
Date/Time
CST
Temp
°C
App
Temp
°C
Dew
Point
°C
Rel
Hum
%
Delta-T
°C
Wind Press
QNH
hPa
Press
MSL
hPa
Rain since
9am
mm
Dir  Spd
km/h
Gust
km/h
Spd
kts
Gust
kts
23/11:30pm 28.3 32.8 23.9 77 3.0 NE 7 11 4 6 1011.2 - 33.4
23/11:00pm 28.0 33.6 23.6 77 3.0 CALM 0 0 0 0 1010.9 - 33.4
23/10:30pm 27.9 32.1 23.1 75 3.3 SSW 6 9 3 5 1011.1 - 33.4
23/10:00pm 27.8 33.2 23.2 76 3.1 CALM 0 2 0 1 1011.2 - 33.4
23/09:30pm 27.9 31.6 23.3 76 3.2 SE 9 11 5 6 1011.0 - 33.4
23/09:00pm 28.5 31.2 21.3 65 4.8 SSW 9 15 5 8 1010.9 1010.3 33.4
23/08:30pm 28.3 30.5 21.8 68 4.4 NNW 13 24 7 13 1010.3 - 33.4
23/08:00pm 27.2 27.3 22.6 76 3.1 WNW 26 44 14 24 1009.7 - 33.4
23/07:36pm 25.4 25.6 22.1 82 2.2 N 24 46 13 25 1009.5 - 33.2
23/07:30pm 25.0 22.6 21.9 83 2.1 NW 37 50 20 27 1009.8 - 31.4
23/07:26pm 25.0 22.2 21.1 79 2.6 NW 37 50 20 27 1010.1 - 28.4
23/07:00pm 27.3 25.9 22.9 77 3.0 SSW 35 59 19 32 1009.5 - 6.8
23/06:57pm 27.8 26.8 21.3 67 4.3 WSW 28 54 15 29 1009.5 - 4.6
23/06:47pm 32.1 31.7 19.4 47 8.4 S 20 32 11 17 1008.6 - 1.0
23/06:30pm 37.2 36.1 13.2 23 14.7 WSW 11 15 6 8 1007.5 - 0.0
23/06:00pm 39.0 37.2 12.0 20 16.4 N 13 22 7 12 1007.0 1006.4 0.0
23/05:30pm 39.7 37.8 11.7 19 17.0 N 13 20 7 11 1006.5 - 0.0
23/05:00pm 39.9 38.7 12.7 20 16.7 N 11 20 6 11 1006.4 - 0.0
23/04:30pm 40.3 39.5 13.0 20 16.9 WSW 9 20 5 11 1006.4 - 0.0
23/04:00pm 39.8 38.7 11.8 19 17.0 N 9 13 5 7 1006.7 - 0.0
23/03:30pm 39.6 38.8 11.7 19 16.9 SSE 7 11 4 6 1007.0 - 0.0
23/03:00pm 39.2 38.4 12.9 21 16.2 N 9 13 5 7 1007.5 1006.9 0.0
23/02:30pm 39.3 37.9 12.2 20 16.5 NNE 11 17 6 9 1007.9 - 0.0
23/02:00pm 39.2 37.6 12.9 21 16.2 N 13 24 7 13 1008.2 - 0.0
23/01:30pm 38.6 37.5 13.1 22 15.7 WNW 11 17 6 9 1008.8 - 0.0
23/01:00pm 38.5 38.3 13.7 23 15.4 SE 7 15 4 8 1009.4 - 0.0
23/12:30pm 37.5 36.9 13.5 24 14.8 NNW 9 17 5 9 1010.1 - 0.0
23/12:00pm 36.9 35.6 13.6 24 14.4 NNW 13 22 7 12 1010.7 1010.1 0.0
23/11:30am 36.3 35.0 13.7 25 13.9 NNW 13 20 7 11 1011.0 - 0.0
23/11:00am 36.0 34.9 15.2 29 13.1 WNW 15 20 8 11 1011.3 - 0.0
23/10:30am 35.2 34.9 16.5 33 11.9 NW 13 19 7 10 1011.8 - 0.0
23/10:00am 33.4 33.0 17.1 37 10.4 NNW 15 22 8 12 1011.9 - 0.0
23/09:30am 33.2 34.6 21.0 48 8.2 N 15 20 8 11 1012.0 - 0.0
23/09:00am 31.4 32.8 21.8 56 6.5 N 17 24 9 13 1012.0 1011.4 0.0
23/08:30am 30.5 32.4 22.1 61 5.7 NNW 15 19 8 10 1011.9 - 0.0
23/08:00am 29.8 31.9 22.5 65 5.0 NNW 15 20 8 11 1011.6 - 0.0
23/07:30am 28.6 31.6 22.6 70 4.1 NW 11 15 6 8 1011.3 - 0.0
23/07:00am 28.2 30.6 22.2 70 4.1 NW 13 17 7 9 1010.9 - 0.0
23/06:30am 28.3 31.0 22.1 69 4.2 NNW 11 17 6 9 1011.0 - 0.0
23/06:00am 27.9 31.2 21.9 70 4.0 NNW 7 9 4 5 1010.6 1010.0 0.0
23/05:30am 28.2 29.9 21.7 68 4.4 N 15 20 8 11 1009.9 - 0.0
23/05:00am 28.3 30.1 21.8 68 4.4 N 15 20 8 11 1009.8 - 0.0
23/04:30am 27.9 28.3 21.0 66 4.6 NNE 20 28 11 15 1009.8 - 0.0
23/04:00am 28.6 31.2 21.9 67 4.5 NNE 11 17 6 9 1010.0 - 0.0
23/03:30am 29.2 31.3 21.7 64 5.1 NNE 13 19 7 10 1010.1 - 0.0
23/03:00am 29.2 32.5 21.9 64 4.9 E 7 11 4 6 1010.5 1009.9 0.0
23/02:30am 29.1 31.1 20.8 61 5.5 SE 11 15 6 8 1010.8 - 0.0
23/02:00am 29.7 30.8 20.5 57 6.1 WSW 15 19 8 10 1010.3 - 0.0
23/01:30am 30.3 32.1 21.1 58 6.2 WNW 13 17 7 9 1010.0 - 0.0
23/01:00am 29.8 31.7 20.6 57 6.1 N 11 15 6 8 1010.4 - 0.0
23/12:30am 30.2 34.1 20.4 55 6.5 CALM 0 0 0 0 1010.6 - 0.0
23/12:00am 30.2 34.1 20.4 55 6.5 CALM 0 0 0 0 1010.6 1010.0 0.0
 
Date/Time
CST
Temp
°C
App
Temp
°C
Dew
Point
°C
Rel
Hum
%
Delta-T
°C
Wind Press
QNH
hPa
Press
MSL
hPa
Rain since
9am
mm
Dir  Spd
km/h
Gust
km/h
Spd
kts
Gust
kts
22/11:30pm 30.2 33.7 20.4 55 6.5 NW 2 6 1 3 1010.7 - 0.0
22/11:00pm 30.9 34.6 19.9 52 7.3 CALM 0 6 0 3 1011.0 - 0.0
22/10:30pm 30.9 34.3 20.2 53 7.1 WSW 2 6 1 3 1011.0 - 0.0
22/10:00pm 31.0 33.7 20.3 53 7.1 W 6 7 3 4 1010.9 - 0.0
22/09:30pm 31.1 33.2 20.1 52 7.3 W 9 11 5 6 1010.6 - 0.0
22/09:00pm 31.1 32.3 19.8 51 7.5 NNW 13 19 7 10 1010.2 1009.6 0.0
22/08:30pm 31.6 33.0 19.6 49 7.9 NNW 11 15 6 8 1009.8 - 0.0
22/08:00pm 31.6 32.4 19.9 50 7.7 NNW 15 20 8 11 1009.5 - 0.0
22/07:30pm 32.4 33.8 19.6 46 8.5 NNW 11 13 6 7 1009.7 - 0.0
22/07:00pm 32.8 35.0 19.3 45 8.9 WNW 6 9 3 5 1009.4 - 0.0
22/06:30pm 32.9 34.0 19.7 45 8.7 SSW 13 20 7 11 1008.7 - 0.0
22/06:00pm 33.8 33.1 18.7 40 9.9 S 20 26 11 14 1008.7 1008.1 0.0
22/05:30pm 34.2 34.3 18.3 39 10.4 WSW 15 22 8 12 1008.0 - 0.0
22/05:00pm 34.9 33.7 18.5 38 10.7 WSW 22 30 12 16 1007.7 - 0.0
22/04:30pm 35.6 34.0 19.1 38 10.9 SW 26 35 14 19 1007.7 - 0.0
22/04:21pm 36.5 34.3 18.6 35 11.8 SW 28 43 15 23 1007.5 - 0.0
22/04:00pm 38.3 36.7 16.0 27 14.3 WNW 19 22 10 12 1007.2 - 0.0
22/03:30pm 38.4 38.6 16.7 28 14.0 WSW 11 20 6 11 1007.5 - 0.0
22/03:00pm 37.5 37.2 16.4 28 13.6 N 13 20 7 11 1007.8 1007.2 0.0
22/02:30pm 38.0 37.3 16.3 27 13.9 N 15 20 8 11 1008.0 - 0.0
22/02:00pm 37.5 38.6 17.0 30 13.3 N 7 17 4 9 1008.7 - 0.0
22/01:30pm 37.4 38.7 18.4 32 12.5 WSW 9 13 5 7 1009.3 - 0.0
22/01:00pm 36.1 38.3 19.1 36 11.3 ENE 6 13 3 7 1010.2 - 0.0
22/12:30pm 35.4 37.6 20.5 41 10.0 WSW 9 15 5 8 1011.1 - 0.0
22/12:00pm 34.1 36.7 21.2 47 8.7 W 9 13 5 7 1011.8 1011.2 0.0
22/11:30am 33.1 36.4 21.9 51 7.6 NE 7 11 4 6 1012.4 - 0.0
22/11:00am 31.7 35.5 22.7 59 6.2 SW 7 11 4 6 1013.0 - 0.0
22/10:30am 30.7 35.1 23.4 65 5.0 N 6 13 3 7 1013.2 - 0.0
22/10:00am 29.9 33.9 23.8 70 4.2 N 9 15 5 8 1013.6 - 0.0
22/09:30am 29.3 32.8 24.2 74 3.6 N 13 17 7 9 1013.8 - 0.0
22/09:00am 28.9 33.3 23.8 74 3.5 N 7 9 4 5 1013.8 1013.2 0.0
22/08:30am 28.6 34.0 23.9 75 3.3 NNE 2 6 1 3 1013.6 - 0.0
22/08:00am 28.3 34.2 24.1 78 2.9 CALM 0 6 0 3 1013.4 - 0.0
22/07:30am 27.7 32.3 24.1 81 2.5 N 7 9 4 5 1012.9 - 0.0
22/07:00am 27.5 32.0 23.9 81 2.5 N 7 9 4 5 1012.3 - 0.0
22/06:30am 27.4 32.5 23.4 79 2.7 N 2 7 1 4 1011.7 - 0.0
22/06:00am 27.1 31.4 23.3 80 2.6 ENE 6 7 3 4 1011.4 1010.8 0.0
22/05:30am 27.2 31.0 22.8 77 3.0 NE 7 11 4 6 1010.9 - 0.0
22/05:00am 27.6 31.2 23.0 76 3.1 N 9 13 5 7 1010.7 - 0.0
22/04:30am 27.8 31.4 23.0 75 3.3 N 9 13 5 7 1010.3 - 0.0
22/04:00am 27.8 30.7 22.5 73 3.6 N 11 13 6 7 1009.7 - 0.0
22/03:30am 28.0 31.0 22.0 70 4.0 N 9 11 5 6 1009.7 - 0.0
22/03:00am 28.8 31.8 21.3 64 5.0 NW 7 11 4 6 1009.8 1009.2 0.0
22/02:30am 28.5 31.5 22.0 68 4.4 N 9 13 5 7 1009.8 - 0.0
22/02:00am 28.8 32.1 21.8 66 4.7 N 7 11 4 6 1010.1 - 0.0
22/01:30am 29.0 31.8 21.5 64 5.0 N 9 13 5 7 1010.6 - 0.0
22/01:00am 29.5 32.5 21.2 61 5.6 NNW 7 11 4 6 1010.8 - 0.0
22/12:30am 29.8 32.2 20.9 59 5.9 NW 9 15 5 8 1011.0 - 0.0
22/12:00am 30.0 32.4 20.8 57 6.1 NNW 9 13 5 7 1011.2 1010.6 0.0
 
Date/Time
CST
Temp
°C
App
Temp
°C
Dew
Point
°C
Rel
Hum
%
Delta-T
°C
Wind Press
QNH
hPa
Press
MSL
hPa
Rain since
9am
mm
Dir  Spd
km/h
Gust
km/h
Spd
kts
Gust
kts
21/11:30pm 30.5 32.2 20.1 53 6.9 N 11 15 6 8 1011.4 - 0.0
21/11:00pm 30.9 31.1 20.2 53 7.1 N 19 24 10 13 1011.7 - 0.0
21/10:30pm 31.4 32.0 19.4 49 7.9 N 15 19 8 10 1011.5 - 0.0
21/10:00pm 31.9 32.8 19.2 47 8.3 NW 13 19 7 10 1011.0 - 0.0
21/09:30pm 32.3 33.7 19.5 46 8.4 N 11 17 6 9 1010.4 - 0.0
21/09:00pm 33.4 33.5 19.1 42 9.4 NNW 17 28 9 15 1010.1 1009.5 0.0
21/08:30pm 34.0 33.6 18.9 41 9.9 WNW 19 24 10 13 1009.8 - 0.0
21/08:00pm 34.1 34.3 18.6 40 10.1 NNW 15 20 8 11 1009.5 - 0.0
21/07:30pm 35.5 36.1 16.8 33 12.0 NNW 9 13 5 7 1009.2 - 0.0
21/07:00pm 36.0 36.6 16.7 31 12.4 NNW 9 13 5 7 1009.1 - 0.0
21/06:30pm 36.6 36.4 16.7 30 12.8 NW 13 17 7 9 1008.8 - 0.0
21/06:00pm 37.1 36.5 16.6 29 13.2 N 15 20 8 11 1008.3 1007.7 0.0
21/05:30pm 37.8 37.0 16.1 27 13.9 NNW 15 26 8 14 1007.9 - 0.0
21/05:00pm 38.2 37.5 15.3 25 14.5 NNW 13 19 7 10 1007.9 - 0.0
21/04:30pm 38.3 37.6 15.4 25 14.5 N 13 20 7 11 1008.0 - 0.0
21/04:00pm 38.4 37.0 15.5 26 14.6 WNW 17 24 9 13 1008.2 - 0.0
21/03:30pm 38.5 36.9 15.0 25 14.8 NNW 17 22 9 12 1008.6 - 0.0
21/03:00pm 38.1 36.2 15.2 25 14.5 WNW 19 24 10 13 1009.0 1008.4 0.0
21/02:30pm 38.1 37.3 15.2 25 14.5 NNW 13 22 7 12 1009.4 - 0.0
21/02:00pm 37.5 37.0 15.9 28 13.8 N 13 20 7 11 1010.0 - 0.0
21/01:30pm 38.0 37.9 16.9 29 13.7 N 13 24 7 13 1010.5 - 0.0
21/01:00pm 37.0 37.3 17.1 31 12.9 NNE 11 24 6 13 1011.3 - 0.0
21/12:30pm 36.2 36.1 16.9 32 12.4 NNE 13 24 7 13 1012.2 - 0.0
21/12:00pm 36.6 36.6 18.2 34 12.1 W 15 24 8 13 1012.7 1012.1 0.0
21/11:30am 35.5 35.1 18.1 35 11.4 N 17 24 9 13 1013.4 - 0.0
21/11:00am 34.9 35.3 18.9 39 10.5 WNW 15 22 8 12 1013.8 - 0.0
21/10:30am 34.2 33.5 18.7 40 10.2 WNW 20 26 11 14 1014.1 - 0.0
21/10:00am 34.1 33.4 18.2 39 10.4 NW 19 28 10 15 1014.2 - 0.0
21/09:30am 32.9 33.8 20.1 47 8.5 NNW 15 22 8 12 1014.2 - 0.0
21/09:00am 31.9 34.8 23.2 60 6.0 NNW 13 19 7 10 1014.1 1013.5 0.0
21/08:30am 30.6 33.9 23.8 67 4.7 N 13 17 7 9 1014.1 - 0.0

Other Formats:

Comma delimited format used in spreadsheet applications
http://www.bom.gov.au/fwo/IDD60801/IDD60801.94130.axf

JavaScript Object Notation format (JSON) in row-major order
http://www.bom.gov.au/fwo/IDD60801/IDD60801.94130.json